createdAt,value
2024-03-02T00:00:16.124Z,0.59
2024-03-02T00:01:16.236Z,0.61
2024-03-02T00:02:16.166Z,0.64
2024-03-02T00:03:16.264Z,0.62
2024-03-02T00:04:16.321Z,0.64
2024-03-02T00:05:16.387Z,0.64
2024-03-02T00:06:16.451Z,0.66
2024-03-02T00:07:16.491Z,0.68
2024-03-02T00:08:16.545Z,0.67
2024-03-02T00:09:16.600Z,0.69
2024-03-02T00:10:16.612Z,0.69
2024-03-02T00:11:16.718Z,0.69
2024-03-02T00:12:16.772Z,0.67
2024-03-02T00:13:16.808Z,0.68
2024-03-02T00:14:16.848Z,0.66
2024-03-02T00:15:16.976Z,0.65
2024-03-02T00:16:16.959Z,0.65
2024-03-02T00:17:17.038Z,0.62
2024-03-02T00:18:17.107Z,0.66
2024-03-02T00:19:17.179Z,0.62
2024-03-02T00:20:17.226Z,0.60
2024-03-02T00:21:17.331Z,0.59
2024-03-02T00:22:17.292Z,0.59
2024-03-02T00:23:17.302Z,0.59
2024-03-02T00:24:17.356Z,0.56
2024-03-02T00:25:17.358Z,0.55
2024-03-02T00:26:17.378Z,0.53
2024-03-02T00:27:17.403Z,0.53
2024-03-02T00:28:17.418Z,0.53
2024-03-02T00:29:17.530Z,0.54
2024-03-02T00:30:17.516Z,0.57
2024-03-02T00:31:17.472Z,0.54
2024-03-02T00:32:17.501Z,0.54
2024-03-02T00:33:17.549Z,0.50
2024-03-02T00:34:17.621Z,0.50
2024-03-02T00:35:17.594Z,0.51
2024-03-02T00:36:17.669Z,0.53
2024-03-02T00:37:17.689Z,0.54
2024-03-02T00:38:17.833Z,0.51
2024-03-02T00:39:17.871Z,0.53
2024-03-02T00:40:17.934Z,0.50
2024-03-02T00:41:17.970Z,0.51
2024-03-02T00:42:18.051Z,0.51
2024-03-02T00:43:18.088Z,0.52
2024-03-02T00:44:18.137Z,0.52
2024-03-02T00:45:18.259Z,0.51
2024-03-02T00:46:18.311Z,0.50
2024-03-02T00:47:18.321Z,0.52
2024-03-02T00:48:18.401Z,0.52
2024-03-02T00:49:18.435Z,0.53
2024-03-02T00:50:26.580Z,0.56
2024-03-02T00:51:19.549Z,0.56
2024-03-02T00:52:18.543Z,0.56
2024-03-02T00:53:18.566Z,0.57
2024-03-02T00:54:18.642Z,0.55
2024-03-02T00:55:18.599Z,0.52
2024-03-02T00:56:18.643Z,0.55
2024-03-02T00:57:18.749Z,0.55
2024-03-02T00:58:18.674Z,0.56
2024-03-02T00:59:18.775Z,0.56
2024-03-02T01:00:18.952Z,0.58
2024-03-02T01:01:18.801Z,0.59
2024-03-02T01:02:18.778Z,0.59
2024-03-02T01:03:18.789Z,0.59
2024-03-02T01:04:18.809Z,0.62
2024-03-02T01:05:18.829Z,0.60
2024-03-02T01:06:18.929Z,0.61
2024-03-02T01:07:18.899Z,0.58
2024-03-02T01:08:18.923Z,0.60
2024-03-02T01:09:19.188Z,0.60
2024-03-02T01:10:18.942Z,0.59
2024-03-02T01:11:19.012Z,0.59
2024-03-02T01:12:18.995Z,0.59
2024-03-02T01:13:18.994Z,0.61
2024-03-02T01:14:19.012Z,0.57
2024-03-02T01:15:19.129Z,0.57
2024-03-02T01:16:19.067Z,0.56
2024-03-02T01:17:19.076Z,0.60
2024-03-02T01:18:19.135Z,0.60
2024-03-02T01:19:19.200Z,0.59
2024-03-02T01:20:19.158Z,0.59
2024-03-02T01:21:19.360Z,0.63
2024-03-02T01:22:19.192Z,0.65
2024-03-02T01:23:19.224Z,0.72
2024-03-02T01:24:19.339Z,0.75
2024-03-02T01:25:19.357Z,0.78
2024-03-02T01:26:19.293Z,0.78
2024-03-02T01:27:19.348Z,0.76
2024-03-02T01:28:19.335Z,0.74
2024-03-02T01:29:19.362Z,0.76
2024-03-02T01:30:19.407Z,0.77
2024-03-02T01:31:19.417Z,0.69
2024-03-02T01:32:19.417Z,0.70
2024-03-02T01:33:19.685Z,0.71
2024-03-02T01:34:19.478Z,0.70
2024-03-02T01:35:19.507Z,0.72
2024-03-02T01:36:19.566Z,0.70
2024-03-02T01:37:19.556Z,0.69
2024-03-02T01:38:19.576Z,0.67
2024-03-02T01:39:19.624Z,0.67
2024-03-02T01:40:19.628Z,0.67
2024-03-02T01:41:19.651Z,0.67
2024-03-02T01:42:19.686Z,0.71
2024-03-02T01:43:19.710Z,0.76
2024-03-02T01:44:19.716Z,0.79
2024-03-02T01:45:19.793Z,0.83
2024-03-02T01:46:19.770Z,0.86
2024-03-02T01:47:19.856Z,0.85
2024-03-02T01:48:19.950Z,0.90
2024-03-02T01:49:20.034Z,0.94
2024-03-02T01:50:20.136Z,1.01
2024-03-02T01:51:20.235Z,1.07
2024-03-02T01:52:20.311Z,1.08
2024-03-02T01:53:20.417Z,1.10
2024-03-02T01:54:20.526Z,1.16
2024-03-02T01:55:20.555Z,1.21
2024-03-02T01:56:20.608Z,1.24
2024-03-02T01:57:20.719Z,1.35
2024-03-02T01:58:20.692Z,1.35
2024-03-02T01:59:20.696Z,1.37
2024-03-02T02:00:20.741Z,1.39
2024-03-02T02:01:20.797Z,1.39
2024-03-02T02:02:20.749Z,1.51
2024-03-02T02:03:20.781Z,1.59
2024-03-02T02:04:20.765Z,1.60
2024-03-02T02:05:20.822Z,1.48
2024-03-02T02:06:20.832Z,1.46
2024-03-02T02:07:20.812Z,1.51
2024-03-02T02:08:20.834Z,1.50
2024-03-02T02:09:20.876Z,1.43
2024-03-02T02:10:20.874Z,1.47
2024-03-02T02:11:20.898Z,1.50
2024-03-02T02:12:20.910Z,1.48
2024-03-02T02:13:20.917Z,1.38
2024-03-02T02:14:20.926Z,1.32
2024-03-02T02:15:20.956Z,1.25
2024-03-02T02:16:20.985Z,1.30
2024-03-02T02:17:21.059Z,1.40
2024-03-02T02:18:21.136Z,1.31
2024-03-02T02:19:21.125Z,1.31
2024-03-02T02:20:21.138Z,1.32
2024-03-02T02:21:21.185Z,1.34
2024-03-02T02:22:21.179Z,1.37
2024-03-02T02:23:21.198Z,1.41
2024-03-02T02:24:21.198Z,1.38
2024-03-02T02:25:21.205Z,1.41
2024-03-02T02:26:21.222Z,1.42
2024-03-02T02:27:21.284Z,1.44
2024-03-02T02:28:21.252Z,1.41
2024-03-02T02:29:21.268Z,1.48
2024-03-02T02:30:21.327Z,1.44
2024-03-02T02:31:21.316Z,1.45
2024-03-02T02:32:21.317Z,1.51
2024-03-02T02:33:21.409Z,1.45
2024-03-02T02:34:21.359Z,1.42
2024-03-02T02:35:21.385Z,1.39
2024-03-02T02:36:21.421Z,1.44
2024-03-02T02:37:21.423Z,1.44
2024-03-02T02:38:21.428Z,1.48
2024-03-02T02:39:21.511Z,1.51
2024-03-02T02:40:21.498Z,1.52
2024-03-02T02:41:21.513Z,1.52
2024-03-02T02:42:21.533Z,1.53
2024-03-02T02:43:21.551Z,1.49
2024-03-02T02:44:21.564Z,1.36
2024-03-02T02:45:21.656Z,1.41
2024-03-02T02:46:21.581Z,1.38
2024-03-02T02:47:21.624Z,1.38
2024-03-02T02:48:21.741Z,1.48
2024-03-02T02:49:21.632Z,1.46
2024-03-02T02:50:21.666Z,1.46
2024-03-02T02:51:21.704Z,1.42
2024-03-02T02:52:21.700Z,1.38
2024-03-02T02:53:21.697Z,1.39
2024-03-02T02:54:21.767Z,1.31
2024-03-02T02:55:21.716Z,1.24
2024-03-02T02:56:21.731Z,1.14
2024-03-02T02:57:21.746Z,1.15
2024-03-02T02:58:21.749Z,1.20
2024-03-02T02:59:21.763Z,1.17
2024-03-02T03:00:21.826Z,1.21
2024-03-02T03:01:21.938Z,1.21
2024-03-02T03:02:21.925Z,1.19
2024-03-02T03:03:22.018Z,1.18
2024-03-02T03:04:22.034Z,1.21
2024-03-02T03:05:22.092Z,1.18
2024-03-02T03:06:22.163Z,1.23
2024-03-02T03:07:22.239Z,1.18
2024-03-02T03:08:22.271Z,1.09
2024-03-02T03:09:22.369Z,1.06
2024-03-02T03:10:22.379Z,1.06
2024-03-02T03:11:22.456Z,1.03
2024-03-02T03:12:22.464Z,1.03
2024-03-02T03:13:22.498Z,1.01
2024-03-02T03:14:22.490Z,1.00
2024-03-02T03:15:22.543Z,1.04
2024-03-02T03:16:22.527Z,1.09
2024-03-02T03:17:22.547Z,1.13
2024-03-02T03:18:22.651Z,1.15
2024-03-02T03:19:22.589Z,1.16
2024-03-02T03:20:22.686Z,1.13
2024-03-02T03:21:22.663Z,1.15
2024-03-02T03:22:22.624Z,1.16
2024-03-02T03:23:22.642Z,1.18
2024-03-02T03:24:22.663Z,1.17
2024-03-02T03:25:22.693Z,1.16
2024-03-02T03:26:22.676Z,1.09
2024-03-02T03:27:22.718Z,1.00
2024-03-02T03:28:22.721Z,0.88
2024-03-02T03:29:22.779Z,0.84
2024-03-02T03:30:22.916Z,0.85
2024-03-02T03:31:22.907Z,0.78
2024-03-02T03:32:23.010Z,0.81
2024-03-02T03:33:23.112Z,0.84
2024-03-02T03:34:23.137Z,0.82
2024-03-02T03:35:23.212Z,0.77
2024-03-02T03:36:23.317Z,0.77
2024-03-02T03:37:23.363Z,0.75
2024-03-02T03:38:23.454Z,0.74
2024-03-02T03:39:23.573Z,0.72
2024-03-02T03:40:23.636Z,0.65
2024-03-02T03:41:23.680Z,0.61
2024-03-02T03:42:23.813Z,0.62
2024-03-02T03:43:23.832Z,0.63
2024-03-02T03:44:23.907Z,0.64
2024-03-02T03:45:24.012Z,0.64
2024-03-02T03:46:24.048Z,0.62
2024-03-02T03:47:24.125Z,0.60
2024-03-02T03:48:24.206Z,0.61
2024-03-02T03:49:24.262Z,0.61
2024-03-02T03:50:24.304Z,0.63
2024-03-02T03:51:24.392Z,0.61
2024-03-02T03:52:24.471Z,0.61
2024-03-02T03:53:24.547Z,0.59
2024-03-02T03:54:24.668Z,0.60
2024-03-02T03:55:24.725Z,0.58
2024-03-02T03:56:24.793Z,0.60
2024-03-02T03:57:24.935Z,0.58
2024-03-02T03:58:24.990Z,0.51
2024-03-02T03:59:25.131Z,0.51
2024-03-02T04:00:25.159Z,0.50
2024-03-02T04:01:25.276Z,0.50
2024-03-02T04:02:25.282Z,0.50
2024-03-02T04:03:25.379Z,0.50
2024-03-02T04:04:25.395Z,0.50
2024-03-02T04:05:25.395Z,0.51
2024-03-02T04:06:25.485Z,0.51
2024-03-02T04:07:25.413Z,0.51
2024-03-02T04:08:25.445Z,0.50
2024-03-02T04:09:25.524Z,0.52
2024-03-02T04:10:25.484Z,0.51
2024-03-02T04:11:25.540Z,0.51
2024-03-02T04:12:25.545Z,0.51
2024-03-02T04:13:25.543Z,0.52
2024-03-02T04:14:25.540Z,0.50
2024-03-02T04:15:25.629Z,0.49
2024-03-02T04:16:25.593Z,0.50
2024-03-02T04:17:25.715Z,0.50
2024-03-02T04:18:25.757Z,0.52
2024-03-02T04:19:25.835Z,0.51
2024-03-02T04:20:25.924Z,0.49
2024-03-02T04:21:26.012Z,0.51
2024-03-02T04:22:26.350Z,0.52
2024-03-02T04:23:26.109Z,0.52
2024-03-02T04:24:26.222Z,0.50
2024-03-02T04:25:26.242Z,0.51
2024-03-02T04:26:26.257Z,0.49
2024-03-02T04:27:26.350Z,0.50
2024-03-02T04:28:26.348Z,0.52
2024-03-02T04:29:26.405Z,0.52
2024-03-02T04:30:26.500Z,0.50
2024-03-02T04:31:26.509Z,0.49
2024-03-02T04:32:26.525Z,0.51
2024-03-02T04:33:26.555Z,0.53
2024-03-02T04:34:26.570Z,0.52
2024-03-02T04:35:26.619Z,0.50
2024-03-02T04:36:33.998Z,0.50
2024-03-02T04:37:33.911Z,0.50
2024-03-02T04:38:33.879Z,0.50
2024-03-02T04:39:33.935Z,0.50
2024-03-02T04:40:33.914Z,0.50
2024-03-02T04:41:33.929Z,0.51
2024-03-02T04:42:33.968Z,0.52
2024-03-02T04:43:33.893Z,0.55
2024-03-02T04:44:33.881Z,0.53
2024-03-02T04:45:33.934Z,0.52
2024-03-02T04:46:33.879Z,0.53
2024-03-02T04:47:33.882Z,0.50
2024-03-02T04:48:33.971Z,0.50
2024-03-02T04:49:34.022Z,0.51
2024-03-02T04:50:33.873Z,0.52
2024-03-02T04:51:33.898Z,0.51
2024-03-02T04:52:33.867Z,0.53
2024-03-02T04:53:33.862Z,0.57
2024-03-02T04:54:33.951Z,0.57
2024-03-02T04:55:33.846Z,0.55
2024-03-02T04:56:33.840Z,0.59
2024-03-02T04:57:33.848Z,0.58
2024-03-02T04:58:33.834Z,0.56
2024-03-02T04:59:33.836Z,0.58
2024-03-02T05:00:33.963Z,0.57
2024-03-02T05:01:33.904Z,0.57
2024-03-02T05:02:33.809Z,0.57
2024-03-02T05:03:33.825Z,0.55
2024-03-02T05:04:33.811Z,0.55
2024-03-02T05:05:33.812Z,0.57
2024-03-02T05:06:33.834Z,0.58
2024-03-02T05:07:33.827Z,0.58
2024-03-02T05:08:33.795Z,0.57
2024-03-02T05:09:33.828Z,0.58
2024-03-02T05:10:33.776Z,0.58
2024-03-02T05:11:33.780Z,0.61
2024-03-02T05:12:33.783Z,0.63
2024-03-02T05:13:33.759Z,0.65
2024-03-02T05:14:33.768Z,0.63
2024-03-02T05:15:33.773Z,0.62
2024-03-02T05:16:33.744Z,0.64
2024-03-02T05:17:33.777Z,0.63
2024-03-02T05:18:33.749Z,0.64
2024-03-02T05:19:33.756Z,0.63
2024-03-02T05:20:33.734Z,0.63
2024-03-02T05:21:33.750Z,0.62
2024-03-02T05:22:33.751Z,0.58
2024-03-02T05:23:33.749Z,0.60
2024-03-02T05:24:33.749Z,0.61
2024-03-02T05:25:33.737Z,0.63
2024-03-02T05:26:33.711Z,0.60
2024-03-02T05:27:33.799Z,0.60
2024-03-02T05:28:33.700Z,0.57
2024-03-02T05:29:33.695Z,0.56
2024-03-02T05:30:33.715Z,0.52
2024-03-02T05:31:33.683Z,0.57
2024-03-02T05:32:33.683Z,0.57
2024-03-02T05:33:33.783Z,0.58
2024-03-02T05:34:33.678Z,0.58
2024-03-02T05:35:33.667Z,0.57
2024-03-02T05:36:33.672Z,0.58
2024-03-02T05:37:33.634Z,0.58
2024-03-02T05:38:33.641Z,0.56
2024-03-02T05:39:33.633Z,0.54
2024-03-02T05:40:33.635Z,0.55
2024-03-02T05:41:33.628Z,0.54
2024-03-02T05:42:33.628Z,0.54
2024-03-02T05:43:33.604Z,0.55
2024-03-02T05:44:33.608Z,0.56
2024-03-02T05:45:33.656Z,0.57
2024-03-02T05:46:33.595Z,0.58
2024-03-02T05:47:33.627Z,0.57
2024-03-02T05:48:33.597Z,0.60
2024-03-02T05:49:33.585Z,0.60
2024-03-02T05:50:33.562Z,0.60
2024-03-02T05:51:33.588Z,0.64
2024-03-02T05:52:33.568Z,0.63
2024-03-02T05:53:33.530Z,0.65
2024-03-02T05:54:33.570Z,0.71
2024-03-02T05:55:33.536Z,0.69
2024-03-02T05:56:33.496Z,0.69
2024-03-02T05:57:33.568Z,0.66
2024-03-02T05:58:33.476Z,0.68
2024-03-02T05:59:33.474Z,0.64
2024-03-02T06:00:33.570Z,0.63
2024-03-02T06:01:33.526Z,0.63
2024-03-02T06:02:35.141Z,0.62
2024-03-02T06:03:33.459Z,0.64
2024-03-02T06:04:33.471Z,0.68
2024-03-02T06:05:33.429Z,0.66
2024-03-02T06:06:33.446Z,0.65
2024-03-02T06:07:33.413Z,0.65
2024-03-02T06:08:33.409Z,0.66
2024-03-02T06:09:33.460Z,0.65
2024-03-02T06:10:33.398Z,0.70
2024-03-02T06:11:33.400Z,0.73
2024-03-02T06:12:33.471Z,0.74
2024-03-02T06:13:33.390Z,0.75
2024-03-02T06:14:33.393Z,0.79
2024-03-02T06:15:33.351Z,0.82
2024-03-02T06:16:33.330Z,0.83
2024-03-02T06:17:33.302Z,0.78
2024-03-02T06:18:33.284Z,0.78
2024-03-02T06:19:33.256Z,0.76
2024-03-02T06:20:36.603Z,0.77
2024-03-02T06:21:33.234Z,0.73
2024-03-02T06:22:33.208Z,0.70
2024-03-02T06:23:33.177Z,0.70
2024-03-02T06:24:33.255Z,0.67
2024-03-02T06:25:33.161Z,0.65
2024-03-02T06:26:33.146Z,0.66
2024-03-02T06:27:33.132Z,0.64
2024-03-02T06:28:33.120Z,0.67
2024-03-02T06:29:33.080Z,0.64
2024-03-02T06:30:33.107Z,0.65
2024-03-02T06:31:33.040Z,0.64
2024-03-02T06:32:33.039Z,0.62
2024-03-02T06:33:33.056Z,0.60
2024-03-02T06:34:32.981Z,0.58
2024-03-02T06:35:32.964Z,0.59
2024-03-02T06:36:32.988Z,0.56
2024-03-02T06:37:32.927Z,0.55
2024-03-02T06:38:32.896Z,0.57
2024-03-02T06:39:32.913Z,0.56
2024-03-02T06:40:32.882Z,0.56
2024-03-02T06:41:32.849Z,0.54
2024-03-02T06:42:32.835Z,0.53
2024-03-02T06:43:32.818Z,0.56
2024-03-02T06:44:32.806Z,0.58
2024-03-02T06:45:32.799Z,0.64
2024-03-02T06:46:32.763Z,0.65
2024-03-02T06:47:32.750Z,0.65
2024-03-02T06:48:32.804Z,0.69
2024-03-02T06:49:32.735Z,0.69
2024-03-02T06:50:32.812Z,0.68
2024-03-02T06:51:32.855Z,0.69
2024-03-02T06:52:32.871Z,0.71
2024-03-02T06:53:32.919Z,0.70
2024-03-02T06:54:32.967Z,0.70
2024-03-02T06:55:32.992Z,0.69
2024-03-02T06:56:33.043Z,0.68
2024-03-02T06:57:33.081Z,0.74
2024-03-02T06:58:33.083Z,0.74
2024-03-02T06:59:33.122Z,0.71
2024-03-02T07:00:33.212Z,0.74
2024-03-02T07:01:33.247Z,0.74
2024-03-02T07:02:33.167Z,0.74
2024-03-02T07:03:33.240Z,0.75
2024-03-02T07:04:33.224Z,0.81
2024-03-02T07:05:33.272Z,0.86
2024-03-02T07:06:33.382Z,0.93
2024-03-02T07:07:33.346Z,1.00
2024-03-02T07:08:33.378Z,1.01
2024-03-02T07:09:33.482Z,1.03
2024-03-02T07:10:33.483Z,1.10
2024-03-02T07:11:33.528Z,1.13
2024-03-02T07:12:33.650Z,1.13
2024-03-02T07:13:33.638Z,1.15
2024-03-02T07:14:33.696Z,1.22
2024-03-02T07:15:33.766Z,1.32
2024-03-02T07:16:33.767Z,1.25
2024-03-02T07:17:33.804Z,1.31
2024-03-02T07:18:33.845Z,1.43
2024-03-02T07:19:33.921Z,1.48
2024-03-02T07:20:33.878Z,1.54
2024-03-02T07:21:33.895Z,1.45
2024-03-02T07:22:33.940Z,1.39
2024-03-02T07:23:33.956Z,1.26
2024-03-02T07:24:33.959Z,1.21
2024-03-02T07:27:34.012Z,1.19
2024-03-02T07:28:33.944Z,1.20
2024-03-02T07:29:33.944Z,1.25
2024-03-02T07:30:34.482Z,1.33
2024-03-02T07:31:33.914Z,1.30
2024-03-02T07:32:33.961Z,1.23
2024-03-02T07:33:33.979Z,1.13
2024-03-02T07:34:33.843Z,1.08
2024-03-02T07:35:33.817Z,1.13
2024-03-02T07:36:33.843Z,1.14
2024-03-02T07:37:33.774Z,1.16
2024-03-02T07:38:33.744Z,1.10
2024-03-02T07:39:33.762Z,0.99
2024-03-02T07:40:33.716Z,1.00
2024-03-02T07:41:33.716Z,0.96
2024-03-02T07:42:33.727Z,0.91
2024-03-02T07:43:33.672Z,0.85
2024-03-02T07:44:33.654Z,0.82
2024-03-02T07:45:33.709Z,0.79
2024-03-02T07:46:33.617Z,0.70
2024-03-02T07:47:33.624Z,0.73
2024-03-02T07:48:33.668Z,0.69
2024-03-02T07:49:33.577Z,0.67
2024-03-02T07:50:33.549Z,0.64
2024-03-02T07:51:33.538Z,0.63
2024-03-02T07:52:33.522Z,0.65
2024-03-02T07:53:33.501Z,0.65
2024-03-02T07:54:33.509Z,0.67
2024-03-02T07:55:33.454Z,0.65
2024-03-02T07:56:33.413Z,0.64
2024-03-02T07:57:33.449Z,0.63
2024-03-02T07:58:33.382Z,0.63
2024-03-02T07:59:33.339Z,0.63
2024-03-02T08:00:33.397Z,0.64
2024-03-02T08:01:33.461Z,0.63
2024-03-02T08:02:33.288Z,0.65
2024-03-02T08:03:33.307Z,0.63
2024-03-02T08:04:33.237Z,0.63
2024-03-02T08:05:33.229Z,0.64
2024-03-02T08:06:33.226Z,0.64
2024-03-02T08:07:33.168Z,0.66
2024-03-02T08:08:33.146Z,0.64
2024-03-02T08:09:33.144Z,0.62
2024-03-02T08:10:33.100Z,0.64
2024-03-02T08:11:33.072Z,0.64
2024-03-02T08:12:33.066Z,0.65
2024-03-02T08:13:33.075Z,0.67
2024-03-02T08:14:32.984Z,0.66
2024-03-02T08:15:32.992Z,0.63
2024-03-02T08:16:32.923Z,0.65
2024-03-02T08:17:34.265Z,0.65
2024-03-02T08:18:32.920Z,0.66
2024-03-02T08:19:32.862Z,0.66
2024-03-02T08:20:32.819Z,0.66
2024-03-02T08:21:32.843Z,0.64
2024-03-02T08:22:32.755Z,0.65
2024-03-02T08:23:32.727Z,0.66
2024-03-02T08:24:32.705Z,0.66
2024-03-02T08:25:32.726Z,0.67
2024-03-02T08:26:32.651Z,0.68
2024-03-02T08:27:32.680Z,0.69
2024-03-02T08:28:32.627Z,0.71
2024-03-02T08:29:32.553Z,0.67
2024-03-02T08:30:32.559Z,0.65
2024-03-02T08:31:32.492Z,0.66
2024-03-02T08:32:32.480Z,0.67
2024-03-02T08:33:33.987Z,0.68
2024-03-02T08:34:32.417Z,0.68
2024-03-02T08:35:32.403Z,0.69
2024-03-02T08:36:32.384Z,0.67
2024-03-02T08:37:32.305Z,0.63
2024-03-02T08:38:32.272Z,0.60
2024-03-02T08:39:32.317Z,0.59
2024-03-02T08:40:32.228Z,0.60
2024-03-02T08:41:32.186Z,0.63
2024-03-02T08:42:32.229Z,0.63
2024-03-02T08:43:32.144Z,0.64
2024-03-02T08:44:32.118Z,0.64
2024-03-02T08:45:32.174Z,0.61
2024-03-02T08:46:32.064Z,0.59
2024-03-02T08:47:32.118Z,0.59
2024-03-02T08:48:32.066Z,0.61
2024-03-02T08:49:31.981Z,0.59
2024-03-02T08:50:31.968Z,0.61
2024-03-02T08:51:31.993Z,0.59
2024-03-02T08:52:31.908Z,0.57
2024-03-02T08:53:31.886Z,0.51
2024-03-02T08:54:31.896Z,0.50
2024-03-02T08:55:31.832Z,0.51
2024-03-02T08:56:31.807Z,0.51
2024-03-02T08:57:31.870Z,0.51
2024-03-02T08:58:31.769Z,0.50
2024-03-02T08:59:31.762Z,0.50
2024-03-02T09:00:31.853Z,0.53
2024-03-02T09:01:31.874Z,0.57
2024-03-02T09:02:31.800Z,0.57
2024-03-02T09:03:31.852Z,0.60
2024-03-02T09:05:31.920Z,0.54
2024-03-02T09:06:31.960Z,0.54
2024-03-02T09:07:31.976Z,0.53
2024-03-02T09:08:32.014Z,0.54
2024-03-02T09:09:32.079Z,0.53
2024-03-02T09:10:32.086Z,0.57
2024-03-02T09:11:32.069Z,0.57
2024-03-02T09:12:32.069Z,0.63
2024-03-02T09:13:32.011Z,0.69
2024-03-02T09:14:32.055Z,0.78
2024-03-02T09:15:34.127Z,0.85
2024-03-02T09:16:32.114Z,0.97
2024-03-02T09:17:32.018Z,1.08
2024-03-02T09:18:31.998Z,1.25
2024-03-02T09:19:31.936Z,1.39
2024-03-02T09:20:31.902Z,1.57
2024-03-02T09:21:31.904Z,1.75
2024-03-02T09:22:31.826Z,1.94
2024-03-02T09:23:31.793Z,2.21
2024-03-02T09:24:31.776Z,2.45
2024-03-02T09:25:31.712Z,2.67
2024-03-02T09:26:31.672Z,2.96
2024-03-02T09:27:31.665Z,3.22
2024-03-02T09:28:31.637Z,3.58
2024-03-02T09:29:31.563Z,3.95
2024-03-02T09:30:31.559Z,4.28
2024-03-02T09:31:31.500Z,4.60
2024-03-02T09:32:31.517Z,4.93
2024-03-02T09:33:31.600Z,5.29
2024-03-02T09:34:31.375Z,5.83
2024-03-02T09:35:31.330Z,6.08
2024-03-02T09:36:31.284Z,6.04
2024-03-02T09:37:31.235Z,6.46
2024-03-02T09:38:31.168Z,7.09
2024-03-02T09:39:31.160Z,7.60
2024-03-02T09:40:31.075Z,8.00
2024-03-02T09:41:31.039Z,8.44
2024-03-02T09:42:31.058Z,8.78
2024-03-02T09:43:30.949Z,9.44
2024-03-02T09:44:30.910Z,9.88
2024-03-02T09:45:30.883Z,10.65
2024-03-02T09:46:30.814Z,11.02
2024-03-02T09:47:30.854Z,11.58
2024-03-02T09:48:30.737Z,12.28
2024-03-02T09:49:30.680Z,12.83
2024-03-02T09:50:30.650Z,12.85
2024-03-02T09:51:30.593Z,13.04
2024-03-02T09:52:30.542Z,13.38
2024-03-02T09:53:30.514Z,14.58
2024-03-02T09:54:30.489Z,15.95
2024-03-02T09:55:30.421Z,16.71
2024-03-02T09:56:30.398Z,17.40
2024-03-02T09:57:30.346Z,18.48
2024-03-02T09:58:30.291Z,18.93
2024-03-02T09:59:30.243Z,19.45
2024-03-02T10:00:30.219Z,20.12
2024-03-02T10:01:30.213Z,20.97
2024-03-02T10:02:30.086Z,21.86
2024-03-02T10:03:30.079Z,21.96
2024-03-02T10:04:29.998Z,21.99
2024-03-02T10:05:30.222Z,22.21
2024-03-02T10:06:29.990Z,22.72
2024-03-02T10:07:29.852Z,23.88
2024-03-02T10:08:29.819Z,25.99
2024-03-02T10:09:29.768Z,26.49
2024-03-02T10:10:29.728Z,27.25
2024-03-02T10:11:29.718Z,27.73
2024-03-02T10:12:29.626Z,28.68
2024-03-02T10:13:29.590Z,28.87
2024-03-02T10:14:29.540Z,29.84
2024-03-02T10:15:29.551Z,30.49
2024-03-02T10:16:29.536Z,31.17
2024-03-02T10:17:29.551Z,31.79
2024-03-02T10:18:29.676Z,31.85
2024-03-02T10:19:29.499Z,33.08
2024-03-02T10:20:29.500Z,33.32
2024-03-02T10:21:29.515Z,34.72
2024-03-02T10:22:29.474Z,34.73
2024-03-02T10:23:29.480Z,35.09
2024-03-02T10:24:29.505Z,35.92
2024-03-02T10:25:37.391Z,35.93
2024-03-02T10:26:29.372Z,36.00
2024-03-02T10:27:29.355Z,36.18
2024-03-02T10:28:29.402Z,36.66
2024-03-02T10:29:29.213Z,37.89
2024-03-02T10:30:29.224Z,39.70
2024-03-02T10:31:29.146Z,39.77
2024-03-02T10:32:29.136Z,40.09
2024-03-02T10:33:29.095Z,40.52
2024-03-02T10:34:28.985Z,40.66
2024-03-02T10:35:28.924Z,40.69
2024-03-02T10:36:28.899Z,40.94
2024-03-02T10:37:28.828Z,41.32
2024-03-02T10:38:28.786Z,42.17
2024-03-02T10:39:28.782Z,43.43
2024-03-02T10:40:28.714Z,43.88
2024-03-02T10:41:28.662Z,44.51
2024-03-02T10:42:28.670Z,44.44
2024-03-02T10:43:28.555Z,45.23
2024-03-02T10:44:28.507Z,45.28
2024-03-02T10:45:28.518Z,45.01
2024-03-02T10:46:28.429Z,45.76
2024-03-02T10:47:28.437Z,43.81
2024-03-02T10:48:28.339Z,45.40
2024-03-02T10:49:28.307Z,45.94
2024-03-02T10:50:28.218Z,45.57
2024-03-02T10:51:28.178Z,45.60
2024-03-02T10:52:28.117Z,45.70
2024-03-02T10:53:28.069Z,46.25
2024-03-02T10:54:28.258Z,45.64
2024-03-02T10:55:28.399Z,45.85
2024-03-02T10:56:27.977Z,46.67
2024-03-02T10:57:27.967Z,47.74
2024-03-02T10:58:27.924Z,49.80
2024-03-02T10:59:27.769Z,49.06
2024-03-02T11:00:27.761Z,49.30
2024-03-02T11:01:27.781Z,48.84
2024-03-02T11:02:27.652Z,48.47
2024-03-02T11:03:27.627Z,48.86
2024-03-02T11:04:27.557Z,48.89
2024-03-02T11:05:27.494Z,49.03
2024-03-02T11:06:27.477Z,49.11
2024-03-02T11:07:27.404Z,49.77
2024-03-02T11:08:27.364Z,50.96
2024-03-02T11:09:27.343Z,49.43
2024-03-02T11:10:27.261Z,49.78
2024-03-02T11:11:27.266Z,49.25
2024-03-02T11:12:27.275Z,49.83
2024-03-02T11:13:27.146Z,48.16
2024-03-02T11:14:27.134Z,48.51
2024-03-02T11:15:27.076Z,48.07
2024-03-02T11:16:26.998Z,47.30
2024-03-02T11:17:26.955Z,46.88
2024-03-02T11:18:26.992Z,46.76
2024-03-02T11:19:26.905Z,46.80
2024-03-02T11:20:26.848Z,46.95
2024-03-02T11:21:26.789Z,47.21
2024-03-02T11:22:26.713Z,47.95
2024-03-02T11:23:26.668Z,48.97
2024-03-02T11:24:26.651Z,48.59
2024-03-02T11:25:26.564Z,48.16
2024-03-02T11:26:26.523Z,48.07
2024-03-02T11:27:26.504Z,47.63
2024-03-02T11:28:26.412Z,48.14
2024-03-02T11:29:26.366Z,47.52
2024-03-02T11:30:26.371Z,46.99
2024-03-02T11:31:26.275Z,46.73
2024-03-02T11:32:26.242Z,46.40
2024-03-02T11:33:26.243Z,46.40
2024-03-02T11:34:26.122Z,46.54
2024-03-02T11:35:26.065Z,45.77
2024-03-02T11:36:26.084Z,45.63
2024-03-02T11:37:25.984Z,46.00
2024-03-02T11:38:26.008Z,45.18
2024-03-02T11:39:25.999Z,45.04
2024-03-02T11:40:25.972Z,45.09
2024-03-02T11:41:25.988Z,44.87
2024-03-02T11:42:26.043Z,44.66
2024-03-02T11:43:26.003Z,44.02
2024-03-02T11:44:26.006Z,44.47
2024-03-02T11:45:26.060Z,43.35
2024-03-02T11:46:26.044Z,43.10
2024-03-02T11:47:26.028Z,42.37
2024-03-02T11:48:26.046Z,41.84
2024-03-02T11:49:25.983Z,41.79
2024-03-02T11:50:25.976Z,41.60
2024-03-02T11:51:25.958Z,41.62
2024-03-02T11:52:25.884Z,41.70
2024-03-02T11:53:25.817Z,41.61
2024-03-02T11:54:25.915Z,42.02
2024-03-02T11:55:25.714Z,42.20
2024-03-02T11:56:25.674Z,42.03
2024-03-02T11:57:25.652Z,41.77
2024-03-02T11:58:25.579Z,41.69
2024-03-02T11:59:25.540Z,41.74
2024-03-02T12:00:25.544Z,41.41
2024-03-02T12:01:25.576Z,41.24
2024-03-02T12:02:25.425Z,41.03
2024-03-02T12:03:25.410Z,40.52
2024-03-02T12:04:25.302Z,40.35
2024-03-02T12:05:25.305Z,39.72
2024-03-02T12:06:25.324Z,38.87
2024-03-02T12:07:25.472Z,38.16
2024-03-02T12:08:25.260Z,38.12
2024-03-02T12:09:25.261Z,37.56
2024-03-02T12:10:25.189Z,36.46
2024-03-02T12:11:25.179Z,35.81
2024-03-02T12:12:25.161Z,35.71
2024-03-02T12:13:25.086Z,34.75
2024-03-02T12:14:25.027Z,34.20
2024-03-02T12:15:25.033Z,33.73
2024-03-02T12:16:24.968Z,32.43
2024-03-02T12:17:24.909Z,32.32
2024-03-02T12:18:24.937Z,32.36
2024-03-02T12:19:24.857Z,31.44
2024-03-02T12:20:24.810Z,31.87
2024-03-02T12:21:24.794Z,30.44
2024-03-02T12:22:24.776Z,30.48
2024-03-02T12:23:24.743Z,29.95
2024-03-02T12:24:24.753Z,30.72
2024-03-02T12:25:24.696Z,29.65
2024-03-02T12:26:24.676Z,29.68
2024-03-02T12:27:24.642Z,29.67
2024-03-02T12:28:24.538Z,30.08
2024-03-02T12:29:24.494Z,29.73
2024-03-02T12:30:24.575Z,29.97
2024-03-02T12:31:24.398Z,30.44
2024-03-02T12:32:24.328Z,30.95
2024-03-02T12:33:24.565Z,32.21
2024-03-02T12:34:24.347Z,32.20
2024-03-02T12:35:24.195Z,32.29
2024-03-02T12:36:24.174Z,31.42
2024-03-02T12:37:24.063Z,31.64
2024-03-02T12:38:24.013Z,31.35
2024-03-02T12:39:24.032Z,31.30
2024-03-02T12:40:24.301Z,31.33
2024-03-02T12:41:23.877Z,31.44
2024-03-02T12:42:23.868Z,30.20
2024-03-02T12:43:23.756Z,29.79
2024-03-02T12:44:23.701Z,29.32
2024-03-02T12:45:23.703Z,29.25
2024-03-02T12:46:23.609Z,29.10
2024-03-02T12:47:23.620Z,28.94
2024-03-02T12:48:23.563Z,29.15
2024-03-02T12:49:23.422Z,28.66
2024-03-02T12:50:23.376Z,28.63
2024-03-02T12:51:23.343Z,28.20
2024-03-02T12:52:23.279Z,27.93
2024-03-02T12:53:23.209Z,26.97
2024-03-02T12:54:23.216Z,27.37
2024-03-02T12:55:23.322Z,27.52
2024-03-02T12:56:23.203Z,25.88
2024-03-02T12:57:23.160Z,25.91
2024-03-02T12:58:23.150Z,26.09
2024-03-02T12:59:23.040Z,25.91
2024-03-02T13:00:23.943Z,26.12
2024-03-02T13:01:23.106Z,25.96
2024-03-02T13:02:22.869Z,26.23
2024-03-02T13:03:22.853Z,26.61
2024-03-02T13:04:22.777Z,27.44
2024-03-02T13:05:22.686Z,28.74
2024-03-02T13:06:22.678Z,25.99
2024-03-02T13:07:22.580Z,26.39
2024-03-02T13:08:22.529Z,27.14
2024-03-02T13:09:22.648Z,27.96
2024-03-02T13:10:22.423Z,30.56
2024-03-02T13:11:22.398Z,29.87
2024-03-02T13:12:22.335Z,30.45
2024-03-02T13:13:22.255Z,29.49
2024-03-02T13:14:22.200Z,29.48